sensor_id;sensor_type;location;lat;lon;timestamp;P1;durP1;ratioP1;P2;durP2;ratioP2
10641;SDS011;5369;49.586;8.646;2023-06-10T00:00:37;5.93;;;5.33;;
10641;SDS011;5369;49.586;8.646;2023-06-10T00:03:06;6.27;;;5.30;;
10641;SDS011;5369;49.586;8.646;2023-06-10T00:05:34;6.03;;;5.40;;
10641;SDS011;5369;49.586;8.646;2023-06-10T00:08:01;5.90;;;5.40;;
10641;SDS011;5369;49.586;8.646;2023-06-10T00:10:34;7.37;;;5.27;;
10641;SDS011;5369;49.586;8.646;2023-06-10T00:13:01;5.80;;;5.30;;
10641;SDS011;5369;49.586;8.646;2023-06-10T00:15:27;5.50;;;5.00;;
10641;SDS011;5369;49.586;8.646;2023-06-10T00:17:54;6.23;;;5.60;;
10641;SDS011;5369;49.586;8.646;2023-06-10T00:20:20;6.07;;;4.93;;
10641;SDS011;5369;49.586;8.646;2023-06-10T00:22:52;6.50;;;5.90;;
10641;SDS011;5369;49.586;8.646;2023-06-10T00:25:18;7.23;;;5.73;;
10641;SDS011;5369;49.586;8.646;2023-06-10T00:27:44;5.60;;;5.00;;
10641;SDS011;5369;49.586;8.646;2023-06-10T00:30:10;6.53;;;5.60;;
10641;SDS011;5369;49.586;8.646;2023-06-10T00:32:37;6.30;;;5.70;;
10641;SDS011;5369;49.586;8.646;2023-06-10T00:35:03;6.17;;;5.67;;
10641;SDS011;5369;49.586;8.646;2023-06-10T00:37:30;6.57;;;5.30;;
10641;SDS011;5369;49.586;8.646;2023-06-10T00:39:57;5.63;;;5.13;;
10641;SDS011;5369;49.586;8.646;2023-06-10T00:42:24;6.07;;;5.50;;
10641;SDS011;5369;49.586;8.646;2023-06-10T00:44:50;6.30;;;5.70;;
10641;SDS011;5369;49.586;8.646;2023-06-10T00:47:17;7.03;;;5.80;;
10641;SDS011;5369;49.586;8.646;2023-06-10T00:49:43;6.53;;;6.00;;
10641;SDS011;5369;49.586;8.646;2023-06-10T00:52:10;6.50;;;5.90;;
10641;SDS011;5369;49.586;8.646;2023-06-10T00:54:36;6.57;;;5.97;;
10641;SDS011;5369;49.586;8.646;2023-06-10T00:57:04;7.83;;;6.50;;
10641;SDS011;5369;49.586;8.646;2023-06-10T00:59:30;6.60;;;5.90;;
10641;SDS011;5369;49.586;8.646;2023-06-10T01:01:57;6.80;;;6.20;;
10641;SDS011;5369;49.586;8.646;2023-06-10T01:04:23;7.23;;;6.33;;
10641;SDS011;5369;49.586;8.646;2023-06-10T01:07:07;7.20;;;6.50;;
10641;SDS011;5369;49.586;8.646;2023-06-10T01:09:40;6.67;;;6.07;;
10641;SDS011;5369;49.586;8.646;2023-06-10T01:12:26;7.17;;;6.47;;
10641;SDS011;5369;49.586;8.646;2023-06-10T01:14:55;7.03;;;6.43;;
10641;SDS011;5369;49.586;8.646;2023-06-10T01:17:22;7.67;;;6.37;;
10641;SDS011;5369;49.586;8.646;2023-06-10T01:19:55;7.10;;;6.50;;
10641;SDS011;5369;49.586;8.646;2023-06-10T01:22:25;7.63;;;6.93;;
10641;SDS011;5369;49.586;8.646;2023-06-10T01:24:54;7.67;;;6.90;;
10641;SDS011;5369;49.586;8.646;2023-06-10T01:27:23;7.50;;;6.90;;
10641;SDS011;5369;49.586;8.646;2023-06-10T01:29:54;7.30;;;6.60;;
10641;SDS011;5369;49.586;8.646;2023-06-10T01:34:50;6.77;;;6.17;;
10641;SDS011;5369;49.586;8.646;2023-06-10T01:37:18;7.30;;;6.60;;
10641;SDS011;5369;49.586;8.646;2023-06-10T01:39:45;7.00;;;6.30;;
10641;SDS011;5369;49.586;8.646;2023-06-10T01:42:12;7.27;;;6.57;;
10641;SDS011;5369;49.586;8.646;2023-06-10T01:44:39;7.50;;;6.80;;
10641;SDS011;5369;49.586;8.646;2023-06-10T01:47:07;9.37;;;7.20;;
10641;SDS011;5369;49.586;8.646;2023-06-10T01:49:34;7.20;;;6.60;;
10641;SDS011;5369;49.586;8.646;2023-06-10T01:52:00;8.20;;;7.30;;
10641;SDS011;5369;49.586;8.646;2023-06-10T01:54:27;7.80;;;7.00;;
10641;SDS011;5369;49.586;8.646;2023-06-10T01:56:53;7.37;;;6.70;;
10641;SDS011;5369;49.586;8.646;2023-06-10T01:59:19;7.33;;;6.73;;
10641;SDS011;5369;49.586;8.646;2023-06-10T02:01:46;7.83;;;7.13;;
10641;SDS011;5369;49.586;8.646;2023-06-10T02:04:12;7.40;;;6.70;;
10641;SDS011;5369;49.586;8.646;2023-06-10T02:06:39;9.30;;;6.87;;
10641;SDS011;5369;49.586;8.646;2023-06-10T02:09:05;7.07;;;6.37;;
10641;SDS011;5369;49.586;8.646;2023-06-10T02:11:31;7.27;;;6.57;;
10641;SDS011;5369;49.586;8.646;2023-06-10T02:13:57;7.37;;;6.60;;
10641;SDS011;5369;49.586;8.646;2023-06-10T02:16:23;6.83;;;6.10;;
10641;SDS011;5369;49.586;8.646;2023-06-10T02:18:50;6.90;;;6.20;;
10641;SDS011;5369;49.586;8.646;2023-06-10T02:21:16;6.87;;;6.27;;
10641;SDS011;5369;49.586;8.646;2023-06-10T02:23:42;6.50;;;6.00;;
10641;SDS011;5369;49.586;8.646;2023-06-10T02:26:08;7.10;;;6.40;;
10641;SDS011;5369;49.586;8.646;2023-06-10T02:28:34;6.43;;;5.83;;
10641;SDS011;5369;49.586;8.646;2023-06-10T02:31:01;6.90;;;6.20;;
10641;SDS011;5369;49.586;8.646;2023-06-10T02:33:27;6.83;;;6.23;;
10641;SDS011;5369;49.586;8.646;2023-06-10T02:35:54;6.57;;;5.97;;
10641;SDS011;5369;49.586;8.646;2023-06-10T02:38:21;8.23;;;6.30;;
10641;SDS011;5369;49.586;8.646;2023-06-10T02:40:48;6.20;;;5.67;;
10641;SDS011;5369;49.586;8.646;2023-06-10T02:43:14;6.57;;;6.03;;
10641;SDS011;5369;49.586;8.646;2023-06-10T02:45:41;6.93;;;6.23;;
10641;SDS011;5369;49.586;8.646;2023-06-10T02:48:09;6.70;;;6.20;;
10641;SDS011;5369;49.586;8.646;2023-06-10T02:50:36;6.30;;;5.70;;
10641;SDS011;5369;49.586;8.646;2023-06-10T02:53:17;7.00;;;6.40;;
10641;SDS011;5369;49.586;8.646;2023-06-10T02:55:48;6.93;;;6.23;;
10641;SDS011;5369;49.586;8.646;2023-06-10T02:58:17;6.90;;;6.10;;
10641;SDS011;5369;49.586;8.646;2023-06-10T03:00:43;7.53;;;6.83;;
10641;SDS011;5369;49.586;8.646;2023-06-10T03:03:11;7.80;;;7.03;;
10641;SDS011;5369;49.586;8.646;2023-06-10T03:05:46;7.23;;;6.53;;
10641;SDS011;5369;49.586;8.646;2023-06-10T03:08:14;7.50;;;6.60;;
10641;SDS011;5369;49.586;8.646;2023-06-10T03:10:42;6.33;;;5.83;;
10641;SDS011;5369;49.586;8.646;2023-06-10T03:13:10;7.33;;;6.70;;
10641;SDS011;5369;49.586;8.646;2023-06-10T03:15:37;7.13;;;6.43;;
10641;SDS011;5369;49.586;8.646;2023-06-10T03:18:08;7.93;;;6.73;;
10641;SDS011;5369;49.586;8.646;2023-06-10T03:20:34;6.70;;;6.10;;
10641;SDS011;5369;49.586;8.646;2023-06-10T03:23:03;6.87;;;6.20;;
10641;SDS011;5369;49.586;8.646;2023-06-10T03:25:32;6.83;;;6.23;;
10641;SDS011;5369;49.586;8.646;2023-06-10T03:27:59;6.80;;;6.10;;
10641;SDS011;5369;49.586;8.646;2023-06-10T03:30:26;6.97;;;6.27;;
10641;SDS011;5369;49.586;8.646;2023-06-10T03:32:53;7.37;;;6.67;;
10641;SDS011;5369;49.586;8.646;2023-06-10T03:35:23;6.87;;;6.23;;
10641;SDS011;5369;49.586;8.646;2023-06-10T03:37:49;7.37;;;6.47;;
10641;SDS011;5369;49.586;8.646;2023-06-10T03:40:15;7.37;;;6.77;;
10641;SDS011;5369;49.586;8.646;2023-06-10T03:42:44;7.20;;;6.60;;
10641;SDS011;5369;49.586;8.646;2023-06-10T03:45:13;7.00;;;6.40;;
10641;SDS011;5369;49.586;8.646;2023-06-10T03:47:39;7.07;;;6.23;;
10641;SDS011;5369;49.586;8.646;2023-06-10T03:50:09;7.57;;;6.23;;
10641;SDS011;5369;49.586;8.646;2023-06-10T03:52:37;6.40;;;5.90;;
10641;SDS011;5369;49.586;8.646;2023-06-10T03:55:05;7.83;;;7.13;;
10641;SDS011;5369;49.586;8.646;2023-06-10T03:57:31;7.70;;;6.90;;
10641;SDS011;5369;49.586;8.646;2023-06-10T03:59:58;7.80;;;7.00;;
10641;SDS011;5369;49.586;8.646;2023-06-10T04:02:24;7.83;;;7.13;;
10641;SDS011;5369;49.586;8.646;2023-06-10T04:04:50;8.10;;;7.10;;
10641;SDS011;5369;49.586;8.646;2023-06-10T04:07:17;7.43;;;6.80;;
10641;SDS011;5369;49.586;8.646;2023-06-10T04:09:46;7.63;;;6.80;;
10641;SDS011;5369;49.586;8.646;2023-06-10T04:12:13;7.03;;;6.43;;
10641;SDS011;5369;49.586;8.646;2023-06-10T04:14:39;7.80;;;7.03;;
10641;SDS011;5369;49.586;8.646;2023-06-10T04:17:09;7.93;;;7.07;;
10641;SDS011;5369;49.586;8.646;2023-06-10T04:19:36;6.80;;;6.20;;
10641;SDS011;5369;49.586;8.646;2023-06-10T04:22:02;6.77;;;5.80;;
10641;SDS011;5369;49.586;8.646;2023-06-10T04:24:30;7.10;;;6.40;;
10641;SDS011;5369;49.586;8.646;2023-06-10T04:26:57;6.40;;;5.80;;
10641;SDS011;5369;49.586;8.646;2023-06-10T04:29:23;7.00;;;6.40;;
10641;SDS011;5369;49.586;8.646;2023-06-10T04:31:51;7.30;;;6.53;;
10641;SDS011;5369;49.586;8.646;2023-06-10T04:34:18;6.77;;;6.17;;
10641;SDS011;5369;49.586;8.646;2023-06-10T04:36:45;7.43;;;6.77;;
10641;SDS011;5369;49.586;8.646;2023-06-10T04:39:11;7.33;;;6.67;;
10641;SDS011;5369;49.586;8.646;2023-06-10T04:41:38;7.50;;;6.80;;
10641;SDS011;5369;49.586;8.646;2023-06-10T04:44:04;7.90;;;7.20;;
10641;SDS011;5369;49.586;8.646;2023-06-10T04:46:31;7.83;;;7.00;;
10641;SDS011;5369;49.586;8.646;2023-06-10T04:48:57;8.50;;;7.63;;
10641;SDS011;5369;49.586;8.646;2023-06-10T04:51:24;9.23;;;8.33;;
10641;SDS011;5369;49.586;8.646;2023-06-10T04:53:50;9.00;;;8.10;;
10641;SDS011;5369;49.586;8.646;2023-06-10T04:56:16;10.03;;;9.00;;
10641;SDS011;5369;49.586;8.646;2023-06-10T04:58:42;8.93;;;8.13;;
10641;SDS011;5369;49.586;8.646;2023-06-10T05:01:09;8.40;;;7.70;;
10641;SDS011;5369;49.586;8.646;2023-06-10T05:03:35;9.13;;;8.37;;
10641;SDS011;5369;49.586;8.646;2023-06-10T05:06:01;9.43;;;8.63;;
10641;SDS011;5369;49.586;8.646;2023-06-10T05:08:27;9.60;;;8.63;;
10641;SDS011;5369;49.586;8.646;2023-06-10T05:10:53;9.67;;;8.10;;
10641;SDS011;5369;49.586;8.646;2023-06-10T05:13:19;8.90;;;8.00;;
10641;SDS011;5369;49.586;8.646;2023-06-10T05:15:45;8.33;;;7.53;;
10641;SDS011;5369;49.586;8.646;2023-06-10T05:18:12;8.00;;;7.20;;
10641;SDS011;5369;49.586;8.646;2023-06-10T05:20:38;7.53;;;6.87;;
10641;SDS011;5369;49.586;8.646;2023-06-10T05:23:04;7.73;;;6.93;;
10641;SDS011;5369;49.586;8.646;2023-06-10T05:25:32;7.80;;;7.00;;
10641;SDS011;5369;49.586;8.646;2023-06-10T05:27:58;7.80;;;6.90;;
10641;SDS011;5369;49.586;8.646;2023-06-10T05:30:24;7.30;;;6.70;;
10641;SDS011;5369;49.586;8.646;2023-06-10T05:32:51;9.27;;;8.17;;
10641;SDS011;5369;49.586;8.646;2023-06-10T05:35:18;9.57;;;8.67;;
10641;SDS011;5369;49.586;8.646;2023-06-10T05:37:44;10.43;;;9.40;;
10641;SDS011;5369;49.586;8.646;2023-06-10T05:40:10;11.30;;;10.20;;
10641;SDS011;5369;49.586;8.646;2023-06-10T05:42:37;11.30;;;9.93;;
10641;SDS011;5369;49.586;8.646;2023-06-10T05:45:03;11.83;;;10.40;;
10641;SDS011;5369;49.586;8.646;2023-06-10T05:47:29;9.63;;;8.73;;
10641;SDS011;5369;49.586;8.646;2023-06-10T05:49:55;9.50;;;8.77;;
10641;SDS011;5369;49.586;8.646;2023-06-10T05:52:22;9.73;;;8.73;;
10641;SDS011;5369;49.586;8.646;2023-06-10T05:54:48;10.57;;;9.57;;
10641;SDS011;5369;49.586;8.646;2023-06-10T05:57:14;10.43;;;9.43;;
10641;SDS011;5369;49.586;8.646;2023-06-10T05:59:41;9.73;;;8.83;;
10641;SDS011;5369;49.586;8.646;2023-06-10T06:02:07;11.30;;;10.20;;
10641;SDS011;5369;49.586;8.646;2023-06-10T06:04:33;10.67;;;9.73;;
10641;SDS011;5369;49.586;8.646;2023-06-10T06:06:59;10.47;;;9.57;;
10641;SDS011;5369;49.586;8.646;2023-06-10T06:09:26;9.70;;;8.90;;
10641;SDS011;5369;49.586;8.646;2023-06-10T06:11:52;9.43;;;8.53;;
10641;SDS011;5369;49.586;8.646;2023-06-10T06:14:18;10.27;;;9.37;;
10641;SDS011;5369;49.586;8.646;2023-06-10T06:16:44;9.97;;;9.07;;
10641;SDS011;5369;49.586;8.646;2023-06-10T06:19:10;9.97;;;9.00;;
10641;SDS011;5369;49.586;8.646;2023-06-10T06:21:36;12.03;;;9.43;;
10641;SDS011;5369;49.586;8.646;2023-06-10T06:24:02;10.50;;;9.40;;
10641;SDS011;5369;49.586;8.646;2023-06-10T06:26:29;10.03;;;9.10;;
10641;SDS011;5369;49.586;8.646;2023-06-10T06:28:55;9.20;;;8.40;;
10641;SDS011;5369;49.586;8.646;2023-06-10T06:31:21;9.03;;;8.23;;
10641;SDS011;5369;49.586;8.646;2023-06-10T06:33:47;8.77;;;7.97;;
10641;SDS011;5369;49.586;8.646;2023-06-10T06:36:13;8.27;;;7.57;;
10641;SDS011;5369;49.586;8.646;2023-06-10T06:38:39;8.33;;;7.57;;
10641;SDS011;5369;49.586;8.646;2023-06-10T06:41:05;8.23;;;7.53;;
10641;SDS011;5369;49.586;8.646;2023-06-10T06:43:32;8.57;;;7.77;;
10641;SDS011;5369;49.586;8.646;2023-06-10T06:46:16;7.90;;;7.10;;
10641;SDS011;5369;49.586;8.646;2023-06-10T06:48:43;7.93;;;7.17;;
10641;SDS011;5369;49.586;8.646;2023-06-10T06:51:09;8.47;;;7.23;;
10641;SDS011;5369;49.586;8.646;2023-06-10T06:53:35;7.87;;;7.13;;
10641;SDS011;5369;49.586;8.646;2023-06-10T06:56:02;7.67;;;6.97;;
10641;SDS011;5369;49.586;8.646;2023-06-10T06:58:28;7.40;;;6.67;;
10641;SDS011;5369;49.586;8.646;2023-06-10T07:00:54;10.00;;;6.70;;
10641;SDS011;5369;49.586;8.646;2023-06-10T07:03:21;7.90;;;7.10;;
10641;SDS011;5369;49.586;8.646;2023-06-10T07:05:47;8.17;;;6.20;;
10641;SDS011;5369;49.586;8.646;2023-06-10T07:08:13;7.63;;;6.33;;
10641;SDS011;5369;49.586;8.646;2023-06-10T07:10:40;6.97;;;6.37;;
10641;SDS011;5369;49.586;8.646;2023-06-10T07:13:06;7.13;;;6.50;;
10641;SDS011;5369;49.586;8.646;2023-06-10T07:15:33;7.13;;;6.53;;
10641;SDS011;5369;49.586;8.646;2023-06-10T07:17:59;6.30;;;5.80;;
10641;SDS011;5369;49.586;8.646;2023-06-10T07:20:25;6.77;;;6.23;;
10641;SDS011;5369;49.586;8.646;2023-06-10T07:22:51;6.80;;;6.20;;
10641;SDS011;5369;49.586;8.646;2023-06-10T07:25:17;6.17;;;5.60;;
10641;SDS011;5369;49.586;8.646;2023-06-10T07:27:43;8.03;;;6.40;;
10641;SDS011;5369;49.586;8.646;2023-06-10T07:30:09;6.60;;;6.10;;
10641;SDS011;5369;49.586;8.646;2023-06-10T07:32:36;6.20;;;5.70;;
10641;SDS011;5369;49.586;8.646;2023-06-10T07:35:02;7.37;;;6.00;;
10641;SDS011;5369;49.586;8.646;2023-06-10T07:37:28;7.00;;;6.20;;
10641;SDS011;5369;49.586;8.646;2023-06-10T07:39:54;6.80;;;6.10;;
10641;SDS011;5369;49.586;8.646;2023-06-10T07:42:20;6.87;;;6.27;;
10641;SDS011;5369;49.586;8.646;2023-06-10T07:44:47;7.17;;;5.80;;
10641;SDS011;5369;49.586;8.646;2023-06-10T07:47:13;6.83;;;6.23;;
10641;SDS011;5369;49.586;8.646;2023-06-10T07:49:40;6.70;;;5.73;;
10641;SDS011;5369;49.586;8.646;2023-06-10T07:52:07;6.80;;;5.67;;
10641;SDS011;5369;49.586;8.646;2023-06-10T07:54:33;7.17;;;6.57;;
10641;SDS011;5369;49.586;8.646;2023-06-10T07:56:59;6.43;;;5.70;;
10641;SDS011;5369;49.586;8.646;2023-06-10T07:59:25;6.10;;;5.60;;
10641;SDS011;5369;49.586;8.646;2023-06-10T08:01:52;6.40;;;5.80;;
10641;SDS011;5369;49.586;8.646;2023-06-10T08:04:18;6.07;;;5.57;;
10641;SDS011;5369;49.586;8.646;2023-06-10T08:06:45;6.70;;;6.10;;
10641;SDS011;5369;49.586;8.646;2023-06-10T08:09:11;6.43;;;5.80;;
10641;SDS011;5369;49.586;8.646;2023-06-10T08:11:37;6.57;;;5.83;;
10641;SDS011;5369;49.586;8.646;2023-06-10T08:14:03;6.60;;;6.10;;
10641;SDS011;5369;49.586;8.646;2023-06-10T08:16:29;7.67;;;6.40;;
10641;SDS011;5369;49.586;8.646;2023-06-10T08:18:55;6.70;;;6.10;;
10641;SDS011;5369;49.586;8.646;2023-06-10T08:21:21;6.67;;;5.97;;
10641;SDS011;5369;49.586;8.646;2023-06-10T08:23:47;7.30;;;6.70;;
10641;SDS011;5369;49.586;8.646;2023-06-10T08:26:14;7.03;;;6.37;;
10641;SDS011;5369;49.586;8.646;2023-06-10T08:28:40;6.30;;;5.70;;
10641;SDS011;5369;49.586;8.646;2023-06-10T08:31:06;6.77;;;6.17;;
10641;SDS011;5369;49.586;8.646;2023-06-10T08:33:32;9.63;;;6.50;;
10641;SDS011;5369;49.586;8.646;2023-06-10T08:35:58;6.30;;;5.73;;
10641;SDS011;5369;49.586;8.646;2023-06-10T08:38:24;7.90;;;6.73;;
10641;SDS011;5369;49.586;8.646;2023-06-10T08:40:50;8.23;;;6.60;;
10641;SDS011;5369;49.586;8.646;2023-06-10T08:43:34;6.70;;;6.00;;
10641;SDS011;5369;49.586;8.646;2023-06-10T08:46:03;6.87;;;6.20;;
10641;SDS011;5369;49.586;8.646;2023-06-10T08:48:29;7.77;;;6.67;;
10641;SDS011;5369;49.586;8.646;2023-06-10T08:50:57;6.70;;;6.10;;
10641;SDS011;5369;49.586;8.646;2023-06-10T08:53:24;6.27;;;5.67;;
10641;SDS011;5369;49.586;8.646;2023-06-10T08:55:50;6.27;;;5.77;;
10641;SDS011;5369;49.586;8.646;2023-06-10T08:58:20;6.77;;;6.17;;
10641;SDS011;5369;49.586;8.646;2023-06-10T09:00:46;6.90;;;6.20;;
10641;SDS011;5369;49.586;8.646;2023-06-10T09:03:13;8.10;;;5.90;;
10641;SDS011;5369;49.586;8.646;2023-06-10T09:05:40;6.20;;;5.60;;
10641;SDS011;5369;49.586;8.646;2023-06-10T09:08:06;7.40;;;6.07;;
10641;SDS011;5369;49.586;8.646;2023-06-10T09:10:34;6.80;;;6.20;;
10641;SDS011;5369;49.586;8.646;2023-06-10T09:13:00;7.43;;;6.10;;
10641;SDS011;5369;49.586;8.646;2023-06-10T09:15:26;8.60;;;5.73;;
10641;SDS011;5369;49.586;8.646;2023-06-10T09:17:53;6.70;;;6.07;;
10641;SDS011;5369;49.586;8.646;2023-06-10T09:20:19;7.03;;;6.33;;
10641;SDS011;5369;49.586;8.646;2023-06-10T09:22:45;7.00;;;6.40;;
10641;SDS011;5369;49.586;8.646;2023-06-10T09:25:12;6.87;;;6.27;;
10641;SDS011;5369;49.586;8.646;2023-06-10T09:27:48;7.33;;;6.20;;
10641;SDS011;5369;49.586;8.646;2023-06-10T09:32:54;6.53;;;5.93;;
10641;SDS011;5369;49.586;8.646;2023-06-10T09:35:22;7.80;;;5.93;;
10641;SDS011;5369;49.586;8.646;2023-06-10T09:37:49;7.33;;;6.43;;
10641;SDS011;5369;49.586;8.646;2023-06-10T09:40:16;7.27;;;6.30;;
10641;SDS011;5369;49.586;8.646;2023-06-10T09:42:42;7.83;;;6.20;;
10641;SDS011;5369;49.586;8.646;2023-06-10T09:45:08;6.57;;;5.90;;
10641;SDS011;5369;49.586;8.646;2023-06-10T09:47:34;6.97;;;5.90;;
10641;SDS011;5369;49.586;8.646;2023-06-10T09:50:00;6.80;;;6.17;;
10641;SDS011;5369;49.586;8.646;2023-06-10T09:52:27;5.93;;;5.47;;
10641;SDS011;5369;49.586;8.646;2023-06-10T09:54:58;7.03;;;5.77;;
10641;SDS011;5369;49.586;8.646;2023-06-10T09:57:25;6.57;;;5.80;;
10641;SDS011;5369;49.586;8.646;2023-06-10T09:59:52;7.13;;;6.43;;
10641;SDS011;5369;49.586;8.646;2023-06-10T10:02:19;6.53;;;5.93;;
10641;SDS011;5369;49.586;8.646;2023-06-10T10:04:45;6.27;;;5.60;;
10641;SDS011;5369;49.586;8.646;2023-06-10T10:07:11;5.70;;;5.00;;
10641;SDS011;5369;49.586;8.646;2023-06-10T10:09:38;5.30;;;4.80;;
10641;SDS011;5369;49.586;8.646;2023-06-10T10:12:14;5.33;;;4.80;;
10641;SDS011;5369;49.586;8.646;2023-06-10T10:14:46;5.63;;;4.90;;
10641;SDS011;5369;49.586;8.646;2023-06-10T10:17:14;5.30;;;4.50;;
10641;SDS011;5369;49.586;8.646;2023-06-10T10:19:43;6.07;;;4.70;;
10641;SDS011;5369;49.586;8.646;2023-06-10T10:22:15;5.67;;;4.83;;
10641;SDS011;5369;49.586;8.646;2023-06-10T10:24:55;6.97;;;5.23;;
10641;SDS011;5369;49.586;8.646;2023-06-10T10:29:52;4.60;;;4.20;;
10641;SDS011;5369;49.586;8.646;2023-06-10T10:32:18;5.60;;;5.10;;
10641;SDS011;5369;49.586;8.646;2023-06-10T10:37:31;5.50;;;5.00;;
10641;SDS011;5369;49.586;8.646;2023-06-10T10:39:57;5.73;;;5.13;;
10641;SDS011;5369;49.586;8.646;2023-06-10T10:42:24;6.00;;;5.17;;
10641;SDS011;5369;49.586;8.646;2023-06-10T10:44:50;5.33;;;4.83;;
10641;SDS011;5369;49.586;8.646;2023-06-10T10:47:17;5.80;;;5.30;;
10641;SDS011;5369;49.586;8.646;2023-06-10T10:49:44;6.23;;;5.50;;
10641;SDS011;5369;49.586;8.646;2023-06-10T10:52:11;5.60;;;5.10;;
10641;SDS011;5369;49.586;8.646;2023-06-10T10:54:39;5.20;;;4.80;;
10641;SDS011;5369;49.586;8.646;2023-06-10T10:59:46;5.30;;;4.87;;
10641;SDS011;5369;49.586;8.646;2023-06-10T11:02:33;4.83;;;4.33;;
10641;SDS011;5369;49.586;8.646;2023-06-10T11:05:00;5.40;;;5.00;;
10641;SDS011;5369;49.586;8.646;2023-06-10T11:07:30;6.70;;;5.10;;
10641;SDS011;5369;49.586;8.646;2023-06-10T11:10:00;5.03;;;4.63;;
10641;SDS011;5369;49.586;8.646;2023-06-10T11:15:18;5.93;;;4.57;;
10641;SDS011;5369;49.586;8.646;2023-06-10T11:21:03;5.00;;;4.57;;
10641;SDS011;5369;49.586;8.646;2023-06-10T11:26:08;5.07;;;4.57;;
10641;SDS011;5369;49.586;8.646;2023-06-10T11:28:36;5.40;;;4.63;;
10641;SDS011;5369;49.586;8.646;2023-06-10T11:31:02;5.10;;;4.60;;
10641;SDS011;5369;49.586;8.646;2023-06-10T11:33:28;4.93;;;4.43;;
10641;SDS011;5369;49.586;8.646;2023-06-10T11:35:54;4.93;;;4.53;;
10641;SDS011;5369;49.586;8.646;2023-06-10T11:38:20;5.70;;;4.67;;
10641;SDS011;5369;49.586;8.646;2023-06-10T11:40:50;4.97;;;4.47;;
10641;SDS011;5369;49.586;8.646;2023-06-10T11:43:17;4.70;;;4.30;;
10641;SDS011;5369;49.586;8.646;2023-06-10T11:45:43;4.50;;;4.10;;
10641;SDS011;5369;49.586;8.646;2023-06-10T11:48:10;4.93;;;4.50;;
10641;SDS011;5369;49.586;8.646;2023-06-10T11:50:36;4.87;;;4.47;;
10641;SDS011;5369;49.586;8.646;2023-06-10T11:53:03;4.53;;;4.13;;
10641;SDS011;5369;49.586;8.646;2023-06-10T11:58:12;6.03;;;4.20;;
10641;SDS011;5369;49.586;8.646;2023-06-10T12:00:48;5.10;;;4.60;;
10641;SDS011;5369;49.586;8.646;2023-06-10T12:03:14;5.30;;;4.90;;
10641;SDS011;5369;49.586;8.646;2023-06-10T12:05:53;6.77;;;4.87;;
10641;SDS011;5369;49.586;8.646;2023-06-10T12:08:19;4.60;;;4.20;;
10641;SDS011;5369;49.586;8.646;2023-06-10T12:10:45;5.17;;;4.60;;
10641;SDS011;5369;49.586;8.646;2023-06-10T12:13:12;5.07;;;4.17;;
10641;SDS011;5369;49.586;8.646;2023-06-10T12:15:38;4.63;;;4.23;;
10641;SDS011;5369;49.586;8.646;2023-06-10T12:18:04;4.90;;;4.50;;
10641;SDS011;5369;49.586;8.646;2023-06-10T12:20:31;4.47;;;4.07;;
10641;SDS011;5369;49.586;8.646;2023-06-10T12:22:59;4.47;;;4.07;;
10641;SDS011;5369;49.586;8.646;2023-06-10T12:25:27;4.30;;;3.90;;
10641;SDS011;5369;49.586;8.646;2023-06-10T12:27:55;7.00;;;4.43;;
10641;SDS011;5369;49.586;8.646;2023-06-10T12:30:22;4.50;;;4.10;;
10641;SDS011;5369;49.586;8.646;2023-06-10T12:32:49;4.60;;;4.20;;
10641;SDS011;5369;49.586;8.646;2023-06-10T12:35:16;4.20;;;3.90;;
10641;SDS011;5369;49.586;8.646;2023-06-10T12:37:53;3.87;;;3.57;;
10641;SDS011;5369;49.586;8.646;2023-06-10T12:40:25;4.03;;;3.73;;
10641;SDS011;5369;49.586;8.646;2023-06-10T12:42:51;4.17;;;3.60;;
10641;SDS011;5369;49.586;8.646;2023-06-10T12:45:25;4.10;;;3.63;;
10641;SDS011;5369;49.586;8.646;2023-06-10T12:48:03;4.20;;;3.90;;
10641;SDS011;5369;49.586;8.646;2023-06-10T12:50:30;3.97;;;3.67;;
10641;SDS011;5369;49.586;8.646;2023-06-10T12:52:56;3.50;;;3.30;;
10641;SDS011;5369;49.586;8.646;2023-06-10T12:55:22;3.83;;;3.53;;
10641;SDS011;5369;49.586;8.646;2023-06-10T12:57:49;3.70;;;3.40;;
10641;SDS011;5369;49.586;8.646;2023-06-10T13:00:16;3.80;;;3.50;;
10641;SDS011;5369;49.586;8.646;2023-06-10T13:02:42;4.40;;;3.77;;
10641;SDS011;5369;49.586;8.646;2023-06-10T13:05:08;4.43;;;3.43;;
10641;SDS011;5369;49.586;8.646;2023-06-10T13:07:34;4.10;;;3.70;;
10641;SDS011;5369;49.586;8.646;2023-06-10T13:10:01;4.00;;;3.70;;
10641;SDS011;5369;49.586;8.646;2023-06-10T13:12:27;3.93;;;3.57;;
10641;SDS011;5369;49.586;8.646;2023-06-10T13:14:54;3.70;;;3.40;;
10641;SDS011;5369;49.586;8.646;2023-06-10T13:17:20;3.77;;;3.37;;
10641;SDS011;5369;49.586;8.646;2023-06-10T13:19:46;4.03;;;3.50;;
10641;SDS011;5369;49.586;8.646;2023-06-10T13:22:14;5.17;;;3.50;;
10641;SDS011;5369;49.586;8.646;2023-06-10T13:24:40;3.50;;;3.20;;
10641;SDS011;5369;49.586;8.646;2023-06-10T13:27:08;3.73;;;3.43;;
10641;SDS011;5369;49.586;8.646;2023-06-10T13:29:34;3.80;;;3.10;;
10641;SDS011;5369;49.586;8.646;2023-06-10T13:32:01;3.30;;;3.00;;
10641;SDS011;5369;49.586;8.646;2023-06-10T13:34:27;3.70;;;3.40;;
10641;SDS011;5369;49.586;8.646;2023-06-10T13:36:53;4.37;;;3.37;;
10641;SDS011;5369;49.586;8.646;2023-06-10T13:39:19;3.60;;;3.30;;
10641;SDS011;5369;49.586;8.646;2023-06-10T13:41:46;4.50;;;3.10;;
10641;SDS011;5369;49.586;8.646;2023-06-10T13:44:12;4.33;;;3.33;;
10641;SDS011;5369;49.586;8.646;2023-06-10T13:46:38;3.20;;;3.00;;
10641;SDS011;5369;49.586;8.646;2023-06-10T13:49:04;3.40;;;3.10;;
10641;SDS011;5369;49.586;8.646;2023-06-10T13:51:30;3.60;;;3.30;;
10641;SDS011;5369;49.586;8.646;2023-06-10T13:53:56;3.10;;;2.90;;
10641;SDS011;5369;49.586;8.646;2023-06-10T13:56:22;4.05;;;2.95;;
10641;SDS011;5369;49.586;8.646;2023-06-10T13:58:48;3.40;;;2.70;;
10641;SDS011;5369;49.586;8.646;2023-06-10T14:01:15;3.33;;;3.03;;
10641;SDS011;5369;49.586;8.646;2023-06-10T14:03:41;3.17;;;2.97;;
10641;SDS011;5369;49.586;8.646;2023-06-10T14:06:07;3.15;;;2.95;;
10641;SDS011;5369;49.586;8.646;2023-06-10T14:08:35;3.42;;;3.17;;
10641;SDS011;5369;49.586;8.646;2023-06-10T14:11:01;3.50;;;3.20;;
10641;SDS011;5369;49.586;8.646;2023-06-10T14:13:27;4.07;;;3.58;;
10641;SDS011;5369;49.586;8.646;2023-06-10T14:15:54;7.00;;;3.13;;
10641;SDS011;5369;49.586;8.646;2023-06-10T14:18:20;3.22;;;3.03;;
10641;SDS011;5369;49.586;8.646;2023-06-10T14:20:47;3.83;;;3.20;;
10641;SDS011;5369;49.586;8.646;2023-06-10T14:23:13;3.42;;;3.13;;
10641;SDS011;5369;49.586;8.646;2023-06-10T14:25:39;3.38;;;3.17;;
10641;SDS011;5369;49.586;8.646;2023-06-10T14:28:05;6.07;;;3.10;;
10641;SDS011;5369;49.586;8.646;2023-06-10T14:30:31;3.30;;;3.00;;
10641;SDS011;5369;49.586;8.646;2023-06-10T14:32:57;3.50;;;3.20;;
10641;SDS011;5369;49.586;8.646;2023-06-10T14:35:23;4.25;;;3.55;;
10641;SDS011;5369;49.586;8.646;2023-06-10T14:37:50;4.15;;;3.03;;
10641;SDS011;5369;49.586;8.646;2023-06-10T14:40:16;3.38;;;3.08;;
10641;SDS011;5369;49.586;8.646;2023-06-10T14:42:42;3.25;;;3.05;;
10641;SDS011;5369;49.586;8.646;2023-06-10T14:45:08;4.32;;;3.40;;
10641;SDS011;5369;49.586;8.646;2023-06-10T14:47:35;3.57;;;3.27;;
10641;SDS011;5369;49.586;8.646;2023-06-10T14:50:01;4.37;;;3.50;;
10641;SDS011;5369;49.586;8.646;2023-06-10T14:52:27;4.87;;;3.70;;
10641;SDS011;5369;49.586;8.646;2023-06-10T14:54:53;4.67;;;4.27;;
10641;SDS011;5369;49.586;8.646;2023-06-10T14:57:19;4.03;;;3.63;;
10641;SDS011;5369;49.586;8.646;2023-06-10T14:59:46;3.87;;;3.57;;
10641;SDS011;5369;49.586;8.646;2023-06-10T15:02:12;3.27;;;3.07;;
10641;SDS011;5369;49.586;8.646;2023-06-10T15:04:38;3.10;;;2.90;;
10641;SDS011;5369;49.586;8.646;2023-06-10T15:07:04;3.40;;;3.20;;
10641;SDS011;5369;49.586;8.646;2023-06-10T15:09:30;6.28;;;3.38;;
10641;SDS011;5369;49.586;8.646;2023-06-10T15:11:57;4.75;;;3.28;;
10641;SDS011;5369;49.586;8.646;2023-06-10T15:14:24;3.75;;;3.30;;
10641;SDS011;5369;49.586;8.646;2023-06-10T15:16:51;3.42;;;3.13;;
10641;SDS011;5369;49.586;8.646;2023-06-10T15:19:17;3.60;;;3.30;;
10641;SDS011;5369;49.586;8.646;2023-06-10T15:21:44;7.93;;;7.20;;
10641;SDS011;5369;49.586;8.646;2023-06-10T15:24:10;49.13;;;43.63;;